Ipiiba, Brazil
Current Conditions -  °F | °C
As of 9:00 PM on Thursday 27 Nov 2014 (Local Time) from SBRJ Reporting Station
Overcast Overcast  
Wind Chill: 75°   Ceiling: 1500
Heat Index: 75°   Visibility: 4mi
Dew Point: 72°   Wind: 2mph
Humidity: 89%   Direction: 90°E
Pressure: 29.88"   Gusts: NA
Location:  22.87°S, 42.95°W
Report Text: SBRJ 272300Z 09002KT 7000 FEW010 BKN015 OVC070 24/22 Q1012
Loading
Personal Weather Stations






























Interactive Weather Map New forecast layout! Learn more

10-Day Weather Forecast

Advertisements
Track Severe Weather on mobile